Aledo, Texas
Current Conditions -  °F | °C
As of 4:52 AM on Sunday 21 Dec 2014 (Local Time) from KNFW Reporting Station
Overcast Overcast  
Wind Chill: 51°   Ceiling: 2500
Heat Index: 51°   Visibility: 10mi
Dew Point: 43°   Wind: 9mph
Humidity: 74%   Direction: 150°SSE
Pressure: 30.14"   Gusts: NA
Location:  32.7°N, 97.6°W
Report Text: KNFW 211052Z AUTO 15008KT 10SM OVC025 11/06 A3014 RMK AO2 SLP188 T01060061
Loading
Personal Weather Stations






























Interactive Weather Map New forecast layout! Learn more

10-Day Weather Forecast

Advertisements
Track Severe Weather on mobile